createdAt,value
2018-01-15T00:02:21.398Z,30.87
2018-01-15T00:04:48.839Z,26.90
2018-01-15T00:07:17.043Z,27.60
2018-01-15T00:09:45.008Z,27.43
2018-01-15T00:12:12.470Z,31.27
2018-01-15T00:14:39.897Z,27.87
2018-01-15T00:17:08.101Z,24.93
2018-01-15T00:19:35.539Z,26.67
2018-01-15T00:22:02.976Z,32.50
2018-01-15T00:24:31.190Z,27.50
2018-01-15T00:26:59.870Z,26.87
2018-01-15T00:29:27.611Z,33.60
2018-01-15T00:31:55.791Z,34.23
2018-01-15T00:34:23.764Z,34.97
2018-01-15T00:36:51.719Z,33.53
2018-01-15T00:39:19.717Z,30.63
2018-01-15T00:41:47.144Z,35.30
2018-01-15T00:44:15.875Z,30.50
2018-01-15T00:46:43.521Z,27.40
2018-01-15T00:49:10.950Z,28.87
2018-01-15T00:51:38.777Z,24.17
2018-01-15T00:54:06.216Z,26.70
2018-01-15T00:56:36.217Z,30.57
2018-01-15T00:59:03.655Z,29.60
2018-01-15T01:01:31.082Z,29.03
2018-01-15T01:03:58.515Z,35.20
2018-01-15T01:06:26.367Z,33.77
2018-01-15T01:08:53.805Z,33.10
2018-01-15T01:11:21.227Z,30.23
2018-01-15T01:13:49.987Z,30.43
2018-01-15T01:16:17.831Z,31.50
2018-01-15T01:18:45.968Z,29.67
2018-01-15T01:21:15.275Z,28.33
2018-01-15T01:23:42.716Z,33.43
2018-01-15T01:26:10.905Z,31.67
2018-01-15T01:28:38.494Z,29.53
2018-01-15T01:31:06.466Z,33.40
2018-01-15T01:33:33.884Z,37.20
2018-01-15T01:36:02.631Z,34.67
2018-01-15T01:38:30.060Z,36.53
2018-01-15T01:40:57.499Z,33.43
2018-01-15T01:43:24.929Z,39.67
2018-01-15T01:45:53.521Z,37.27
2018-01-15T01:48:21.708Z,33.77
2018-01-15T01:50:49.145Z,34.87
2018-01-15T01:53:19.907Z,27.53
2018-01-15T01:55:47.872Z,28.97
2018-01-15T01:58:15.301Z,29.20
2018-01-15T02:00:42.738Z,45.00
2018-01-15T02:03:10.175Z,39.50
2018-01-15T02:05:38.377Z,40.03
2018-01-15T02:08:05.803Z,35.67
2018-01-15T02:10:33.236Z,34.20
2018-01-15T02:13:01.280Z,37.63
2018-01-15T02:15:29.803Z,41.90
2018-01-15T02:17:57.226Z,50.00
2018-01-15T02:20:25.431Z,42.93
2018-01-15T02:22:59.558Z,38.07
2018-01-15T02:25:26.997Z,42.23
2018-01-15T02:27:54.428Z,43.40
2018-01-15T02:30:24.863Z,38.47
2018-01-15T02:32:53.483Z,39.07
2018-01-15T02:35:21.074Z,41.43
2018-01-15T02:37:48.495Z,35.03
2018-01-15T02:40:15.925Z,30.70
2018-01-15T02:42:43.365Z,39.80
2018-01-15T02:45:11.326Z,41.53
2018-01-15T02:47:38.760Z,54.87
2018-01-15T02:50:06.583Z,56.90
2018-01-15T02:52:34.019Z,56.20
2018-01-15T02:55:02.252Z,49.40
2018-01-15T02:57:29.676Z,48.30
2018-01-15T02:59:57.096Z,47.23
2018-01-15T03:02:25.294Z,44.40
2018-01-15T03:04:52.718Z,45.00
2018-01-15T03:07:20.153Z,42.27
2018-01-15T03:09:48.084Z,52.20
2018-01-15T03:12:30.289Z,50.33
2018-01-15T03:15:03.606Z,45.73
2018-01-15T03:17:32.443Z,43.63
2018-01-15T03:20:01.267Z,41.90
2018-01-15T03:22:28.710Z,31.10
2018-01-15T03:24:56.886Z,30.80
2018-01-15T03:27:24.324Z,34.57
2018-01-15T03:29:53.234Z,28.77
2018-01-15T03:32:20.654Z,31.27
2018-01-15T03:34:48.083Z,28.77
2018-01-15T03:37:15.515Z,29.20
2018-01-15T03:39:42.939Z,28.93
2018-01-15T03:42:11.135Z,27.63
2018-01-15T03:44:39.140Z,27.27
2018-01-15T03:47:06.577Z,29.60
2018-01-15T03:49:34.003Z,26.27
2018-01-15T03:52:02.200Z,26.57
2018-01-15T03:54:29.627Z,25.00
2018-01-15T03:56:58.483Z,29.57
2018-01-15T03:59:25.886Z,27.93
2018-01-15T04:01:54.488Z,27.33
2018-01-15T04:04:21.910Z,28.63
2018-01-15T04:06:50.107Z,30.10
2018-01-15T04:09:18.063Z,31.97
2018-01-15T04:11:46.853Z,35.23
2018-01-15T04:14:15.616Z,34.17
2018-01-15T04:16:50.199Z,28.73
2018-01-15T04:19:17.630Z,29.50
2018-01-15T04:21:45.046Z,31.83
2018-01-15T04:24:12.474Z,32.60
2018-01-15T04:26:40.210Z,31.47
2018-01-15T04:29:07.635Z,27.77
2018-01-15T04:31:35.475Z,25.50
2018-01-15T04:34:02.919Z,25.70
2018-01-15T04:36:30.334Z,24.73
2018-01-15T04:39:00.055Z,24.60
2018-01-15T04:41:27.479Z,26.07
2018-01-15T04:43:54.912Z,25.97
2018-01-15T04:46:23.554Z,25.57
2018-01-15T04:48:51.738Z,24.77
2018-01-15T04:51:19.174Z,29.57
2018-01-15T04:53:48.197Z,24.87
2018-01-15T04:56:15.620Z,28.27
2018-01-15T04:58:43.811Z,25.53
2018-01-15T05:01:13.712Z,28.17
2018-01-15T05:03:41.903Z,24.10
2018-01-15T05:06:09.333Z,28.53
2018-01-15T05:08:36.768Z,27.67
2018-01-15T05:11:04.212Z,30.20
2018-01-15T05:13:31.632Z,33.00
2018-01-15T05:16:01.499Z,31.80
2018-01-15T05:18:28.931Z,32.40
2018-01-15T05:20:56.364Z,27.30
2018-01-15T05:23:23.786Z,27.13
2018-01-15T05:25:52.014Z,26.90
2018-01-15T05:28:19.444Z,30.03
2018-01-15T05:30:47.482Z,28.53
2018-01-15T05:33:15.603Z,25.43
2018-01-15T05:35:43.559Z,29.93
2018-01-15T05:38:10.974Z,26.53
2018-01-15T05:40:38.406Z,25.13
2018-01-15T05:43:05.842Z,23.63
2018-01-15T05:45:33.267Z,22.90
2018-01-15T05:48:00.686Z,24.80
2018-01-15T05:50:28.527Z,25.37
2018-01-15T05:52:55.959Z,26.53
2018-01-15T05:55:24.555Z,29.90
2018-01-15T05:57:51.980Z,23.33
2018-01-15T06:00:20.175Z,24.10
2018-01-15T06:02:58.343Z,26.37
2018-01-15T06:05:25.778Z,29.87
2018-01-15T06:07:53.607Z,25.47
2018-01-15T06:10:21.038Z,26.30
2018-01-15T06:12:48.864Z,24.67
2018-01-15T06:15:16.291Z,23.70
2018-01-15T06:17:44.138Z,25.93
2018-01-15T06:20:12.331Z,25.97
2018-01-15T06:22:39.754Z,33.50
2018-01-15T06:25:07.699Z,27.17
2018-01-15T06:27:35.640Z,31.23
2018-01-15T06:30:03.067Z,32.17
2018-01-15T06:32:31.704Z,37.70
2018-01-15T06:34:59.120Z,38.50
2018-01-15T06:37:26.551Z,32.80
2018-01-15T06:39:54.752Z,31.73
2018-01-15T06:42:24.697Z,40.80
2018-01-15T06:44:52.111Z,44.70
2018-01-15T06:47:20.908Z,50.03
2018-01-15T06:49:48.335Z,45.23
2018-01-15T06:52:15.767Z,44.13
2018-01-15T06:54:45.623Z,37.37
2018-01-15T06:57:13.830Z,32.53
2018-01-15T06:59:41.246Z,29.67
2018-01-15T07:02:09.451Z,32.53
2018-01-15T07:04:47.170Z,29.43
2018-01-15T07:07:14.611Z,29.53
2018-01-15T07:09:44.614Z,33.33
2018-01-15T07:12:12.048Z,38.00
2018-01-15T07:14:45.242Z,36.90
2018-01-15T07:17:13.468Z,36.53
2018-01-15T07:19:40.896Z,28.87
2018-01-15T07:22:08.343Z,32.93
2018-01-15T07:24:42.951Z,32.27
2018-01-15T07:27:11.544Z,37.17
2018-01-15T07:29:40.443Z,35.00
2018-01-15T07:32:07.851Z,31.27
2018-01-15T07:34:35.831Z,32.03
2018-01-15T07:37:03.281Z,30.43
2018-01-15T07:39:30.710Z,29.90
2018-01-15T07:41:58.127Z,27.03
2018-01-15T07:44:26.324Z,33.43
2018-01-15T07:46:53.744Z,30.23
2018-01-15T07:49:21.189Z,32.30
2018-01-15T07:51:48.630Z,27.17
2018-01-15T07:54:16.066Z,32.33
2018-01-15T07:56:43.483Z,33.47
2018-01-15T07:59:11.681Z,34.47
2018-01-15T08:01:39.094Z,31.90
2018-01-15T08:04:06.545Z,41.40
2018-01-15T08:06:33.978Z,29.27
2018-01-15T08:09:01.963Z,32.80
2018-01-15T08:11:29.382Z,30.23
2018-01-15T08:14:04.971Z,29.20
2018-01-15T08:16:32.908Z,37.13
2018-01-15T08:19:00.339Z,35.33
2018-01-15T08:21:28.526Z,33.70
2018-01-15T08:23:55.947Z,35.80
2018-01-15T08:26:23.379Z,35.20
2018-01-15T08:28:51.069Z,32.43
2018-01-15T08:31:18.485Z,38.10
2018-01-15T08:33:46.298Z,35.13
2018-01-15T08:36:14.493Z,36.63
2018-01-15T08:38:42.107Z,41.23
2018-01-15T08:41:11.215Z,37.93
2018-01-15T08:43:38.812Z,35.67
2018-01-15T08:46:06.658Z,38.80
2018-01-15T08:48:34.847Z,39.20
2018-01-15T08:51:02.276Z,38.53
2018-01-15T08:53:29.702Z,35.53
2018-01-15T08:55:57.123Z,45.30
2018-01-15T08:58:24.546Z,39.63
2018-01-15T09:00:51.981Z,37.43
2018-01-15T09:03:19.395Z,35.23
2018-01-15T09:05:46.812Z,34.70
2018-01-15T09:08:14.251Z,36.87
2018-01-15T09:10:51.900Z,36.97
2018-01-15T09:13:20.027Z,36.30
2018-01-15T09:15:47.458Z,43.40
2018-01-15T09:18:14.895Z,48.17
2018-01-15T09:20:42.320Z,57.07
2018-01-15T09:23:12.958Z,44.87
2018-01-15T09:25:41.176Z,44.67
2018-01-15T09:28:09.179Z,42.07
2018-01-15T09:30:36.608Z,41.83
2018-01-15T09:33:04.027Z,46.23
2018-01-15T09:35:32.224Z,40.60
2018-01-15T09:37:59.650Z,43.37
2018-01-15T09:40:27.844Z,39.07
2018-01-15T09:42:55.803Z,36.03
2018-01-15T09:45:25.856Z,35.53
2018-01-15T09:47:53.288Z,36.13
2018-01-15T09:50:21.280Z,37.27
2018-01-15T09:52:48.707Z,36.03
2018-01-15T09:55:16.133Z,34.70
2018-01-15T09:57:43.559Z,44.13
2018-01-15T10:00:12.925Z,39.50
2018-01-15T10:02:41.091Z,38.63
2018-01-15T10:05:09.701Z,41.27
2018-01-15T10:07:37.121Z,41.13
2018-01-15T10:10:05.836Z,41.30
2018-01-15T10:12:33.820Z,40.80
2018-01-15T10:15:01.659Z,42.70
2018-01-15T10:17:32.526Z,44.60
2018-01-15T10:20:01.873Z,46.93
2018-01-15T10:22:29.280Z,41.53
2018-01-15T10:24:56.697Z,39.13
2018-01-15T10:27:24.886Z,39.93
2018-01-15T10:29:52.778Z,45.60
2018-01-15T10:32:20.209Z,42.37
2018-01-15T10:34:47.627Z,43.97
2018-01-15T10:37:17.670Z,38.37
2018-01-15T10:39:46.367Z,40.13
2018-01-15T10:42:13.784Z,44.07
2018-01-15T10:44:41.211Z,44.40
2018-01-15T10:47:08.631Z,42.33
2018-01-15T10:49:36.818Z,44.17
2018-01-15T10:52:04.248Z,46.27
2018-01-15T10:54:32.430Z,35.87
2018-01-15T10:57:00.628Z,37.23
2018-01-15T10:59:28.060Z,46.83
2018-01-15T11:02:02.418Z,41.27
2018-01-15T11:04:30.790Z,41.87
2018-01-15T11:06:58.216Z,39.47
2018-01-15T11:09:26.398Z,42.23
2018-01-15T11:11:54.610Z,41.73
2018-01-15T11:14:22.019Z,43.47
2018-01-15T11:16:50.216Z,44.83
2018-01-15T11:19:18.195Z,45.90
2018-01-15T11:21:45.614Z,45.80
2018-01-15T11:24:31.219Z,39.67
2018-01-15T11:26:58.642Z,38.87
2018-01-15T11:29:26.062Z,41.03
2018-01-15T11:31:53.491Z,40.90
2018-01-15T11:34:20.925Z,40.90
2018-01-15T11:36:49.115Z,40.37
2018-01-15T11:39:17.757Z,39.70
2018-01-15T11:41:45.191Z,38.87
2018-01-15T11:44:12.619Z,37.80
2018-01-15T11:46:40.966Z,38.50
2018-01-15T11:49:08.459Z,40.03
2018-01-15T11:51:35.888Z,38.37
2018-01-15T11:54:03.319Z,37.30
2018-01-15T11:56:30.754Z,39.47
2018-01-15T11:58:58.179Z,38.37
2018-01-15T12:01:25.622Z,36.30
2018-01-15T12:03:53.827Z,39.87
2018-01-15T12:06:21.251Z,40.10
2018-01-15T12:08:49.447Z,37.30
2018-01-15T12:11:16.878Z,39.43
2018-01-15T12:13:44.315Z,39.53
2018-01-15T12:16:11.735Z,41.23
2018-01-15T12:18:39.155Z,43.60
2018-01-15T12:21:07.352Z,35.73
2018-01-15T12:23:34.827Z,33.63
2018-01-15T12:26:02.260Z,35.53
2018-01-15T12:28:29.675Z,38.10
2018-01-15T12:30:57.118Z,35.33
2018-01-15T12:33:24.546Z,34.07
2018-01-15T12:35:51.966Z,35.67
2018-01-15T12:38:19.408Z,35.03
2018-01-15T12:40:46.860Z,35.63
2018-01-15T12:43:14.285Z,36.93
2018-01-15T12:45:41.920Z,32.77
2018-01-15T12:48:09.759Z,35.97
2018-01-15T12:50:37.953Z,33.10
2018-01-15T12:53:06.562Z,34.67
2018-01-15T12:55:33.984Z,33.57
2018-01-15T12:58:02.174Z,29.70
2018-01-15T13:00:29.609Z,33.33
2018-01-15T13:02:57.033Z,36.40
2018-01-15T13:08:36.934Z,33.87
2018-01-15T13:11:05.285Z,32.37
2018-01-15T13:13:32.724Z,31.90
2018-01-15T13:16:00.161Z,35.83
2018-01-15T13:18:28.524Z,34.07
2018-01-15T13:20:55.959Z,33.10
2018-01-15T13:23:24.172Z,37.27
2018-01-15T13:25:51.618Z,34.43
2018-01-15T13:28:19.083Z,34.73
2018-01-15T13:30:46.531Z,33.43
2018-01-15T13:33:14.859Z,31.13
2018-01-15T13:35:42.293Z,28.40
2018-01-15T13:38:10.452Z,31.63
2018-01-15T13:40:37.885Z,31.90
2018-01-15T13:43:06.090Z,36.33
2018-01-15T13:45:33.514Z,29.53
2018-01-15T13:48:00.976Z,29.20
2018-01-15T13:50:29.174Z,35.67
2018-01-15T13:52:56.625Z,32.20
2018-01-15T13:55:24.275Z,27.93
2018-01-15T13:57:51.900Z,25.77
2018-01-15T14:00:20.232Z,26.53
2018-01-15T14:02:47.684Z,28.53
2018-01-15T14:05:15.644Z,25.13
2018-01-15T14:07:43.079Z,26.43
2018-01-15T14:10:15.493Z,25.37
2018-01-15T14:12:42.928Z,26.37
2018-01-15T14:15:11.273Z,25.27
2018-01-15T14:17:40.020Z,25.30
2018-01-15T14:20:07.469Z,23.13
2018-01-15T14:22:34.921Z,26.37
2018-01-15T14:25:02.375Z,28.83
2018-01-15T14:27:29.807Z,23.77
2018-01-15T14:29:58.019Z,20.20
2018-01-15T14:32:25.461Z,26.23
2018-01-15T14:34:52.888Z,22.70
2018-01-15T14:37:20.424Z,23.93
2018-01-15T14:39:48.546Z,22.83
2018-01-15T14:42:15.994Z,21.87
2018-01-15T14:44:43.433Z,23.37
2018-01-15T14:47:11.657Z,21.57
2018-01-15T14:49:39.089Z,21.63
2018-01-15T14:52:06.519Z,18.30
2018-01-15T14:54:34.730Z,20.07
2018-01-15T14:57:02.161Z,21.43
2018-01-15T14:59:36.124Z,27.17
2018-01-15T15:02:06.143Z,22.10
2018-01-15T15:04:33.589Z,22.27
2018-01-15T15:07:01.012Z,19.97
2018-01-15T15:09:32.744Z,20.10
2018-01-15T15:12:02.868Z,22.67
2018-01-15T15:14:31.073Z,21.53
2018-01-15T15:19:53.025Z,20.47
2018-01-15T15:22:20.460Z,19.53
2018-01-15T15:24:48.676Z,19.50
2018-01-15T15:27:16.132Z,20.83
2018-01-15T15:29:44.467Z,19.57
2018-01-15T15:32:12.259Z,21.57
2018-01-15T15:34:50.411Z,19.50
2018-01-15T15:37:17.848Z,17.80
2018-01-15T15:39:45.733Z,21.33
2018-01-15T15:42:13.221Z,23.17
2018-01-15T15:44:40.683Z,22.97
2018-01-15T15:47:08.277Z,23.87
2018-01-15T15:49:35.856Z,25.53
2018-01-15T15:52:03.394Z,24.30
2018-01-15T15:54:30.905Z,27.23
2018-01-15T15:56:58.355Z,24.17
2018-01-15T15:59:25.852Z,24.87
2018-01-15T16:01:53.355Z,29.43
2018-01-15T16:04:20.842Z,28.57
2018-01-15T16:06:49.103Z,30.20
2018-01-15T16:09:23.252Z,27.93
2018-01-15T16:11:50.801Z,35.20
2018-01-15T16:14:19.308Z,28.53
2018-01-15T16:16:46.748Z,27.87
2018-01-15T16:19:15.060Z,28.53
2018-01-15T16:21:42.548Z,27.97
2018-01-15T16:24:10.009Z,24.00
2018-01-15T16:26:37.495Z,26.20
2018-01-15T16:29:08.365Z,25.23
2018-01-15T16:31:36.815Z,25.83
2018-01-15T16:34:04.274Z,25.57
2018-01-15T16:36:31.751Z,24.87
2018-01-15T16:39:04.543Z,24.57
2018-01-15T16:41:32.517Z,26.60
2018-01-15T16:44:00.574Z,25.23
2018-01-15T16:46:28.104Z,26.00
2018-01-15T16:48:56.056Z,22.97
2018-01-15T16:51:23.627Z,30.43
2018-01-15T16:53:51.902Z,21.97
2018-01-15T16:56:19.480Z,25.27
2018-01-15T16:58:47.508Z,25.33
2018-01-15T17:01:15.005Z,23.57
2018-01-15T17:03:43.270Z,23.67
2018-01-15T17:06:11.080Z,22.83
2018-01-15T17:08:38.593Z,25.73
2018-01-15T17:11:06.924Z,22.67
2018-01-15T17:13:37.053Z,25.30
2018-01-15T17:16:04.658Z,21.07
